Time;durP1;ratioP1;P1;durP2;ratioP2;P2;SDS_P1;SDS_P2;PMS_P1;PMS_P2;Temp;Humidity;BMP_temperature;BMP_pressure;BME280_temperature;BME280_humidity;BME280_pressure;Samples;Min_cycle;Max_cycle;Signal;HPM_P1;HPM_P2
2021/03/27 00:00:41;;;;;;;;;;;;;;;20.45;32.30;101724.03;5118813;28;938;-62
2021/03/27 00:03:19;;;;;;;;;;;;;;;20.24;32.94;101718.50;5118413;28;870;-48
2021/03/27 00:05:51;;;;;;;;;;;;;;;19.72;33.91;101717.59;5120405;28;732;-52
2021/03/27 00:08:19;;;;;;;;;;;;;;;19.67;34.04;101717.59;5118498;28;904;-59
2021/03/27 00:10:49;;;;;;;;;;;;;;;20.65;32.10;101720.44;5120536;28;787;-60
2021/03/27 00:13:33;;;;;;;;;;;;;;;20.39;32.69;101719.63;5120142;28;1910;-47
2021/03/27 00:16:37;;;;;;;;;;;;;;;20.41;32.70;101715.50;5120176;28;743;-64
2021/03/27 00:19:02;;;;;;;;;;;;;;;19.75;33.96;101706.00;5057426;28;1291;-63
2021/03/27 00:21:30;;;;;;;;;;;;;;;19.80;33.79;101708.00;5062178;28;947;-61
2021/03/27 00:23:58;;;;;;;;;;;;;;;20.65;32.17;101707.47;5096534;27;1048;-48
2021/03/27 00:26:32;;;;;;;;;;;;;;;20.22;33.08;101706.09;5140625;27;823;-63
2021/03/27 00:29:06;;;;;;;;;;;;;;;20.27;33.04;101706.09;5140649;27;838;-46
2021/03/27 00:31:33;;;;;;;;;;;;;;;19.42;34.32;101699.84;5139181;27;870;-62
2021/03/27 00:34:00;;;;;;;;;;;;;;;19.82;33.71;101701.09;5140758;27;1909;-48
2021/03/27 00:36:41;;;;;;;;;;;;;;;20.76;32.26;101710.22;5138900;27;980;-56
2021/03/27 00:39:16;;;;;;;;;;;;;;;20.36;32.77;101701.69;5138602;27;788;-62
2021/03/27 00:41:43;;;;;;;;;;;;;;;20.44;32.37;101701.13;5140295;27;882;-62
2021/03/27 00:44:09;;;;;;;;;;;;;;;19.67;33.74;101701.03;5139180;27;1107;-62
2021/03/27 00:46:35;;;;;;;;;;;;;;;19.71;34.08;101699.34;5139065;27;835;-47
2021/03/27 00:49:02;;;;;;;;;;;;;;;20.64;32.29;101697.50;5138931;27;775;-62
2021/03/27 00:51:38;;;;;;;;;;;;;;;20.43;32.71;101699.47;5138547;27;1030;-61
2021/03/27 00:54:04;;;;;;;;;;;;;;;20.35;32.65;101700.00;5138567;27;1921;-60
2021/03/27 00:56:44;;;;;;;;;;;;;;;19.70;33.98;101702.41;5139224;27;1411;-63
2021/03/27 00:59:15;;;;;;;;;;;;;;;19.96;33.48;101700.56;5138890;27;989;-61
2021/03/27 01:01:48;;;;;;;;;;;;;;;20.82;31.78;101696.13;5121975;27;2048;-47
2021/03/27 01:04:33;;;;;;;;;;;;;;;20.32;32.76;101703.34;5139089;27;614;-46
2021/03/27 01:07:17;;;;;;;;;;;;;;;20.09;33.08;101699.19;5139331;27;913;-60
2021/03/27 01:10:23;;;;;;;;;;;;;;;19.62;34.04;101689.97;5132243;27;1163;-61
2021/03/27 01:13:16;;;;;;;;;;;;;;;20.40;32.85;101693.66;5133937;27;1984;-58
2021/03/27 01:15:52;;;;;;;;;;;;;;;20.46;32.40;101695.31;5137905;27;800;-61
2021/03/27 01:18:23;;;;;;;;;;;;;;;20.38;32.82;101696.69;5138709;27;782;-62
2021/03/27 01:20:50;;;;;;;;;;;;;;;19.92;33.41;101693.91;5140107;27;818;-46
2021/03/27 01:23:16;;;;;;;;;;;;;;;19.54;34.43;101690.50;5138961;27;893;-46
2021/03/27 01:25:41;;;;;;;;;;;;;;;19.91;33.85;101692.25;5139553;27;803;-58
2021/03/27 01:28:23;;;;;;;;;;;;;;;20.67;32.13;101687.84;5139828;27;732;-62
2021/03/27 01:30:52;;;;;;;;;;;;;;;20.25;32.98;101698.09;5137837;27;736;-59
2021/03/27 01:33:25;;;;;;;;;;;;;;;20.39;32.56;101692.84;5139457;27;1910;-50
2021/03/27 01:35:55;;;;;;;;;;;;;;;19.63;33.90;101694.41;5137684;27;1068;-46
2021/03/27 01:38:39;;;;;;;;;;;;;;;20.04;33.50;101691.72;5137339;27;1270;-59
2021/03/27 01:41:11;;;;;;;;;;;;;;;20.77;32.21;101692.53;5139610;27;743;-60
2021/03/27 01:44:02;;;;;;;;;;;;;;;20.38;32.84;101691.16;5137626;27;1291;-46
2021/03/27 01:46:36;;;;;;;;;;;;;;;20.05;33.44;101687.88;5106432;27;1047;-44
2021/03/27 01:49:01;;;;;;;;;;;;;;;19.31;34.73;101695.41;5138077;27;759;-61
2021/03/27 01:51:45;;;;;;;;;;;;;;;20.30;33.12;101691.72;5137168;27;1295;-48
2021/03/27 01:54:11;;;;;;;;;;;;;;;20.62;32.30;101696.97;5137735;27;1910;-60
2021/03/27 01:56:43;;;;;;;;;;;;;;;20.45;32.50;101702.75;5138085;27;823;-45
2021/03/27 01:59:08;;;;;;;;;;;;;;;19.95;33.53;101693.38;5138454;27;862;-47
2021/03/27 02:01:39;;;;;;;;;;;;;;;19.32;34.80;101697.03;5138905;27;744;-56
2021/03/27 02:04:11;;;;;;;;;;;;;;;20.37;32.70;101695.06;5137749;27;826;-51
2021/03/27 02:06:41;;;;;;;;;;;;;;;20.68;32.29;101695.88;5137747;27;956;-60
2021/03/27 02:09:25;;;;;;;;;;;;;;;20.34;32.74;101701.97;5137502;27;831;-48
2021/03/27 02:12:02;;;;;;;;;;;;;;;19.88;33.55;101706.59;5138489;27;743;-61
2021/03/27 02:14:46;;;;;;;;;;;;;;;19.41;34.69;101706.47;5119909;27;1974;-46
2021/03/27 02:17:22;;;;;;;;;;;;;;;20.59;32.45;101703.03;5138537;27;875;-49
2021/03/27 02:20:02;;;;;;;;;;;;;;;20.18;33.25;101712.16;5137593;27;775;-62
2021/03/27 02:22:32;;;;;;;;;;;;;;;20.26;33.15;101709.94;5136314;27;961;-46
2021/03/27 02:24:59;;;;;;;;;;;;;;;19.79;33.83;101712.66;5137420;27;759;-62
2021/03/27 02:27:36;;;;;;;;;;;;;;;19.60;34.43;101704.03;5137287;27;763;-49
2021/03/27 02:30:04;;;;;;;;;;;;;;;20.64;32.34;101716.03;5138129;27;807;-49
2021/03/27 02:32:32;;;;;;;;;;;;;;;20.20;33.12;101711.88;5138310;27;736;-62
2021/03/27 02:35:07;;;;;;;;;;;;;;;20.34;33.05;101714.91;5138008;27;1909;-56
2021/03/27 02:37:37;;;;;;;;;;;;;;;19.88;33.71;101715.72;5137360;27;921;-62
2021/03/27 02:40:07;;;;;;;;;;;;;;;19.40;34.53;101715.00;5137318;27;838;-48
2021/03/27 02:42:33;;;;;;;;;;;;;;;20.45;32.83;101716.56;5137933;27;794;-62
2021/03/27 02:45:05;;;;;;;;;;;;;;;20.48;32.32;101718.81;5137790;27;934;-61
2021/03/27 02:47:34;;;;;;;;;;;;;;;20.32;32.85;101717.16;5136835;27;747;-55
2021/03/27 02:50:17;;;;;;;;;;;;;;;19.86;33.79;101722.63;5137618;27;1216;-46
2021/03/27 02:52:49;;;;;;;;;;;;;;;19.34;34.72;101722.44;5136183;27;1024;-59
2021/03/27 02:55:18;;;;;;;;;;;;;;;19.93;33.54;101729.53;5137718;27;1967;-49
2021/03/27 02:57:44;;;;;;;;;;;;;;;20.79;31.89;101724.31;5137725;27;775;-59
2021/03/27 03:00:12;;;;;;;;;;;;;;;20.43;32.62;101732.63;5137488;27;811;-59
2021/03/27 03:02:44;;;;;;;;;;;;;;;20.31;32.92;101735.66;5137703;27;751;-48
2021/03/27 03:05:09;;;;;;;;;;;;;;;19.55;34.34;101733.53;5137689;27;853;-52
2021/03/27 03:07:37;;;;;;;;;;;;;;;19.69;34.29;101736.63;5137295;27;973;-59
2021/03/27 03:10:02;;;;;;;;;;;;;;;20.69;32.28;101740.91;5136398;27;866;-53
2021/03/27 03:12:37;;;;;;;;;;;;;;;20.32;32.82;101736.47;5137525;27;790;-59
2021/03/27 03:15:14;;;;;;;;;;;;;;;20.32;33.04;101736.47;5137262;27;1917;-62
2021/03/27 03:17:45;;;;;;;;;;;;;;;19.80;33.79;101733.66;5119063;27;751;-46
2021/03/27 03:20:19;;;;;;;;;;;;;;;19.25;34.78;101737.81;5138148;27;791;-48
2021/03/27 03:22:49;;;;;;;;;;;;;;;20.39;33.02;101737.03;5135889;27;981;-47
2021/03/27 03:25:16;;;;;;;;;;;;;;;20.59;32.49;101729.84;5135157;27;807;-45
2021/03/27 03:27:53;;;;;;;;;;;;;;;20.27;32.83;101740.09;5135611;27;930;-48
2021/03/27 03:30:27;;;;;;;;;;;;;;;19.97;33.56;101741.69;5136280;27;786;-48
2021/03/27 03:32:59;;;;;;;;;;;;;;;19.55;34.42;101733.53;5137554;27;759;-60
2021/03/27 03:35:24;;;;;;;;;;;;;;;20.46;32.82;101743.09;5137272;27;1939;-50
2021/03/27 03:38:02;;;;;;;;;;;;;;;20.49;32.43;101742.53;5134927;28;977;-46
2021/03/27 03:40:32;;;;;;;;;;;;;;;20.34;32.92;101739.78;5137234;28;815;-47
2021/03/27 03:43:24;;;;;;;;;;;;;;;19.78;33.81;101746.03;5136958;28;763;-46
2021/03/27 03:46:08;;;;;;;;;;;;;;;19.40;34.81;101745.34;5113151;28;1082;-60
2021/03/27 03:48:36;;;;;;;;;;;;;;;20.51;32.40;101748.63;5137433;28;815;-60
2021/03/27 03:51:22;;;;;;;;;;;;;;;20.40;32.78;101748.91;5136292;28;1164;-50
2021/03/27 03:53:47;;;;;;;;;;;;;;;20.24;32.79;101756.34;5136375;28;1917;-59
2021/03/27 03:56:13;;;;;;;;;;;;;;;19.74;33.95;101755.94;5136007;28;759;-46
2021/03/27 03:58:38;;;;;;;;;;;;;;;19.40;34.51;101765.47;5136733;28;711;-53
2021/03/27 04:01:08;;;;;;;;;;;;;;;20.45;32.66;101769.06;5136836;28;838;-61
2021/03/27 04:03:36;;;;;;;;;;;;;;;20.41;32.79;101768.00;5135927;28;743;-61
2021/03/27 04:06:10;;;;;;;;;;;;;;;20.26;32.82;101776.22;5136354;28;1016;-47
2021/03/27 04:08:42;;;;;;;;;;;;;;;19.87;33.79;101777.56;5135624;28;818;-48
2021/03/27 04:11:26;;;;;;;;;;;;;;;19.42;34.62;101770.72;5137022;28;775;-46
2021/03/27 04:13:52;;;;;;;;;;;;;;;20.49;32.52;101781.22;5135112;28;1917;-58
2021/03/27 04:16:18;;;;;;;;;;;;;;;20.27;32.95;101775.13;5135824;28;870;-47
2021/03/27 04:18:55;;;;;;;;;;;;;;;20.27;32.89;101784.28;5135662;28;771;-51
2021/03/27 04:21:37;;;;;;;;;;;;;;;19.75;33.80;101787.97;5134325;28;1254;-59
2021/03/27 04:24:04;;;;;;;;;;;;;;;19.65;34.37;101789.56;5137118;28;787;-51
2021/03/27 04:26:35;;;;;;;;;;;;;;;20.54;32.43;101797.00;5135510;28;843;-60
2021/03/27 04:29:19;;;;;;;;;;;;;;;20.30;33.01;101788.38;5135257;28;736;-48
2021/03/27 04:31:48;;;;;;;;;;;;;;;20.34;32.81;101797.78;5137179;28;827;-50
2021/03/27 04:34:23;;;;;;;;;;;;;;;19.87;33.84;101807.09;5136664;28;1922;-49
2021/03/27 04:36:54;;;;;;;;;;;;;;;19.92;33.56;101805.19;5137499;27;910;-48
2021/03/27 04:39:31;;;;;;;;;;;;;;;20.80;32.19;101808.91;5139300;27;831;-57
2021/03/27 04:42:04;;;;;;;;;;;;;;;20.22;33.12;101797.25;5138780;27;827;-60
2021/03/27 04:44:37;;;;;;;;;;;;;;;20.31;32.93;101807.47;5140527;27;743;-52
2021/03/27 04:47:11;;;;;;;;;;;;;;;19.77;33.89;101807.84;5139151;27;798;-48
2021/03/27 04:49:40;;;;;;;;;;;;;;;19.43;34.30;101814.59;5139690;27;1047;-51
2021/03/27 04:52:13;;;;;;;;;;;;;;;20.46;32.81;101814.94;5138433;27;1029;-46
2021/03/27 04:54:50;;;;;;;;;;;;;;;20.54;32.32;101815.50;5124620;27;1917;-56
2021/03/27 04:57:24;;;;;;;;;;;;;;;20.30;33.13;101814.09;5119349;28;890;-50
2021/03/27 04:59:50;;;;;;;;;;;;;;;19.82;33.55;101822.53;5119618;28;807;-51
2021/03/27 05:02:36;;;;;;;;;;;;;;;19.34;34.48;101820.88;5119645;28;821;-58
2021/03/27 05:05:12;;;;;;;;;;;;;;;20.54;32.66;101821.00;5108162;28;1234;-58
2021/03/27 05:07:37;;;;;;;;;;;;;;;20.46;32.59;101825.97;5133159;27;1028;-57
2021/03/27 05:10:08;;;;;;;;;;;;;;;20.41;32.88;101828.75;5139780;27;790;-57
2021/03/27 05:12:52;;;;;;;;;;;;;;;19.94;33.54;101829.75;5120820;27;912;-53
2021/03/27 05:15:53;;;;;;;;;;;;;;;19.64;34.34;101842.28;5139707;27;1909;-58
2021/03/27 05:18:30;;;;;;;;;;;;;;;20.82;32.03;101839.88;5076436;28;1154;-58
2021/03/27 05:20:59;;;;;;;;;;;;;;;21.41;31.10;101845.88;5130946;27;1064;-49
2021/03/27 05:23:37;;;;;;;;;;;;;;;20.81;31.95;101846.47;5138293;27;740;-49
2021/03/27 05:26:03;;;;;;;;;;;;;;;20.71;32.08;101857.56;5139898;27;811;-50
2021/03/27 05:28:40;;;;;;;;;;;;;;;20.12;33.32;101848.56;5138301;27;1096;-47
2021/03/27 05:31:05;;;;;;;;;;;;;;;19.32;34.75;101856.97;5139517;27;803;-48
2021/03/27 05:33:33;;;;;;;;;;;;;;;19.64;34.44;101853.31;5139626;27;1970;-57
2021/03/27 05:35:58;;;;;;;;;;;;;;;20.70;32.15;101863.34;5137535;27;1491;-50
2021/03/27 05:38:23;;;;;;;;;;;;;;;20.47;32.65;101860.81;5117265;28;859;-51
2021/03/27 05:41:12;;;;;;;;;;;;;;;20.29;33.08;101859.38;5118311;28;897;-58
2021/03/27 05:43:43;;;;;;;;;;;;;;;19.85;33.85;101859.78;5112686;28;1793;-45
2021/03/27 05:46:27;;;;;;;;;;;;;;;19.32;34.87;101866.09;5118630;28;813;-46
2021/03/27 05:49:02;;;;;;;;;;;;;;;20.11;33.56;101873.69;5117338;28;803;-59
2021/03/27 05:51:30;;;;;;;;;;;;;;;20.67;32.22;101870.22;5117822;28;1034;-45
2021/03/27 05:54:01;;;;;;;;;;;;;;;20.32;32.97;101861.59;5118365;28;1913;-46
2021/03/27 05:56:39;;;;;;;;;;;;;;;20.09;33.34;101867.59;5117898;28;819;-58
2021/03/27 05:59:14;;;;;;;;;;;;;;;19.59;34.38;101873.44;5118379;28;806;-55
2021/03/27 06:01:43;;;;;;;;;;;;;;;20.38;32.95;101876.25;5118330;28;815;-50
2021/03/27 06:04:09;;;;;;;;;;;;;;;20.78;32.18;101876.63;5116417;28;806;-49
2021/03/27 06:06:40;;;;;;;;;;;;;;;20.42;32.51;101871.84;5117641;28;961;-50
2021/03/27 06:09:09;;;;;;;;;;;;;;;20.20;33.00;101871.22;5118151;28;835;-52
2021/03/27 06:11:53;;;;;;;;;;;;;;;19.46;34.50;101874.75;5117920;28;755;-48
2021/03/27 06:14:37;;;;;;;;;;;;;;;20.43;32.95;101876.28;5118279;28;1918;-49
2021/03/27 06:17:11;;;;;;;;;;;;;;;20.64;32.21;101876.31;5117855;28;810;-57
2021/03/27 06:19:43;;;;;;;;;;;;;;;20.52;32.42;101873.78;5117859;28;771;-50
2021/03/27 06:22:27;;;;;;;;;;;;;;;20.03;33.31;101872.28;5117380;28;1004;-52
2021/03/27 06:24:55;;;;;;;;;;;;;;;19.43;34.54;101882.72;5116439;28;779;-49
2021/03/27 06:27:20;;;;;;;;;;;;;;;20.18;33.42;101879.78;5116265;28;534;-49
2021/03/27 06:29:55;;;;;;;;;;;;;;;20.76;32.15;101873.31;5117991;28;818;-49
2021/03/27 06:32:39;;;;;;;;;;;;;;;20.48;32.58;101881.81;5117470;28;776;-49
2021/03/27 06:35:09;;;;;;;;;;;;;;;20.24;33.23;101883.41;5117447;28;1989;-50
2021/03/27 06:37:44;;;;;;;;;;;;;;;19.71;34.00;101886.19;5115873;28;966;-51
2021/03/27 06:40:10;;;;;;;;;;;;;;;20.36;32.97;101881.22;5116753;28;835;-49
2021/03/27 06:42:43;;;;;;;;;;;;;;;20.80;31.89;101880.78;5117946;28;786;-59
2021/03/27 06:45:15;;;;;;;;;;;;;;;20.49;32.62;101888.97;5116182;28;849;-56
2021/03/27 06:47:40;;;;;;;;;;;;;;;20.35;33.00;101887.84;5117269;28;782;-63
2021/03/27 06:50:05;;;;;;;;;;;;;;;19.60;34.30;101882.53;5117466;28;1109;-51
2021/03/27 06:52:34;;;;;;;;;;;;;;;19.81;33.95;101889.03;5117030;28;969;-52
2021/03/27 06:54:59;;;;;;;;;;;;;;;20.75;32.38;101883.53;5116898;28;1974;-54
2021/03/27 06:57:31;;;;;;;;;;;;;;;20.49;32.56;101886.22;5117538;28;770;-51
2021/03/27 07:00:03;;;;;;;;;;;;;;;20.54;32.39;101892.84;5116825;28;831;-55
2021/03/27 07:02:34;;;;;;;;;;;;;;;19.66;34.27;101889.75;5115992;28;756;-52
2021/03/27 07:05:19;;;;;;;;;;;;;;;19.77;34.25;101891.47;5116983;28;771;-50
2021/03/27 07:07:56;;;;;;;;;;;;;;;20.86;32.06;101889.91;5116445;28;941;-50
2021/03/27 07:10:37;;;;;;;;;;;;;;;20.43;32.63;101895.59;5116677;28;748;-51
2021/03/27 07:13:17;;;;;;;;;;;;;;;20.51;32.66;101894.25;5116889;28;794;-61
2021/03/27 07:16:01;;;;;;;;;;;;;;;19.44;34.43;101895.41;5115737;28;1985;-54
2021/03/27 07:18:27;;;;;;;;;;;;;;;20.12;33.59;101898.28;5116579;28;791;-53
2021/03/27 07:20:52;;;;;;;;;;;;;;;20.73;32.27;101896.78;5116516;28;1013;-52
2021/03/27 07:23:31;;;;;;;;;;;;;;;20.42;32.94;101906.94;5116630;28;1044;-52
2021/03/27 07:26:15;;;;;;;;;;;;;;;20.29;33.09;101903.56;5116378;28;841;-53
2021/03/27 07:28:40;;;;;;;;;;;;;;;19.15;35.27;101913.13;5116988;28;873;-52
2021/03/27 07:31:06;;;;;;;;;;;;;;;20.12;33.58;101895.50;5116803;28;736;-51
2021/03/27 07:33:42;;;;;;;;;;;;;;;20.75;32.33;101905.66;5114975;28;1905;-54
2021/03/27 07:36:26;;;;;;;;;;;;;;;20.34;33.03;101911.03;5116131;28;972;-51
2021/03/27 07:38:54;;;;;;;;;;;;;;;20.20;33.06;101904.38;5115263;28;1262;-52
2021/03/27 07:41:19;;;;;;;;;;;;;;;19.34;34.93;101909.97;5115015;28;783;-49
2021/03/27 07:44:11;;;;;;;;;;;;;;;20.29;33.03;101909.09;5116682;28;851;-52
2021/03/27 07:46:55;;;;;;;;;;;;;;;20.60;32.22;101914.72;5092502;28;1262;-51
2021/03/27 07:49:39;;;;;;;;;;;;;;;20.44;32.58;101913.00;5116472;28;759;-50
2021/03/27 07:52:17;;;;;;;;;;;;;;;19.95;33.42;101919.72;5115950;28;1022;-50
2021/03/27 07:54:57;;;;;;;;;;;;;;;19.75;34.01;101915.72;5115905;28;1913;-48
2021/03/27 07:57:49;;;;;;;;;;;;;;;20.65;32.47;101908.34;5115582;28;811;-49
2021/03/27 08:00:20;;;;;;;;;;;;;;;20.36;32.78;101914.38;5115191;28;803;-50
2021/03/27 08:02:55;;;;;;;;;;;;;;;20.43;32.96;101908.59;5116011;28;763;-48
2021/03/27 08:05:33;;;;;;;;;;;;;;;19.67;34.21;101917.09;5116469;28;567;-51
2021/03/27 08:08:03;;;;;;;;;;;;;;;20.15;33.46;101913.47;5116038;28;933;-56
2021/03/27 08:10:35;;;;;;;;;;;;;;;20.89;31.98;101914.22;5115446;28;764;-55
2021/03/27 08:13:15;;;;;;;;;;;;;;;20.31;33.13;101912.44;5120582;28;760;-58
2021/03/27 08:16:00;;;;;;;;;;;;;;;20.06;33.42;101915.09;5120063;28;1985;-56
2021/03/27 08:18:43;;;;;;;;;;;;;;;19.40;34.44;101914.41;5120346;28;827;-53
2021/03/27 08:21:15;;;;;;;;;;;;;;;20.29;33.10;101917.38;5120111;28;985;-52
2021/03/27 08:23:40;;;;;;;;;;;;;;;20.52;32.52;101913.31;5119909;28;838;-55
2021/03/27 08:26:30;;;;;;;;;;;;;;;20.24;33.20;101911.03;5119138;28;1243;-50
2021/03/27 08:29:28;;;;;;;;;;;;;;;19.81;33.97;101911.09;5118939;28;756;-55
2021/03/27 08:32:09;;;;;;;;;;;;;;;19.91;33.70;101913.06;5098609;28;1169;-53
2021/03/27 08:34:53;;;;;;;;;;;;;;;20.79;31.98;101916.97;5118920;28;1969;-53
2021/03/27 08:37:18;;;;;;;;;;;;;;;20.42;32.89;101905.00;5118144;28;1052;-55
2021/03/27 08:39:52;;;;;;;;;;;;;;;20.16;33.32;101910.44;5118403;28;779;-52
2021/03/27 08:42:18;;;;;;;;;;;;;;;19.10;35.17;101910.34;5118100;28;879;-56
2021/03/27 08:44:43;;;;;;;;;;;;;;;20.28;32.89;101909.38;5119771;28;786;-52
2021/03/27 08:47:14;;;;;;;;;;;;;;;20.81;31.90;101909.25;5119412;28;751;-50
2021/03/27 08:49:43;;;;;;;;;;;;;;;20.40;32.57;101906.34;5118468;28;497;-52
2021/03/27 08:52:11;;;;;;;;;;;;;;;20.05;33.07;101907.91;5117396;28;1528;-56
2021/03/27 08:54:43;;;;;;;;;;;;;;;19.08;35.31;101907.03;5119413;28;1977;-54
2021/03/27 08:57:21;;;;;;;;;;;;;;;20.29;32.97;101900.00;5119576;28;799;-56
2021/03/27 08:59:59;;;;;;;;;;;;;;;20.48;32.49;101903.06;5119868;28;751;-57
2021/03/27 09:02:43;;;;;;;;;;;;;;;20.35;32.75;101901.66;5100701;28;815;-51
2021/03/27 09:05:14;;;;;;;;;;;;;;;19.82;33.58;101893.44;5119349;28;786;-56
2021/03/27 09:07:43;;;;;;;;;;;;;;;19.77;33.75;101897.00;5118926;28;981;-52
2021/03/27 09:10:30;;;;;;;;;;;;;;;20.70;32.13;101899.28;5118860;28;747;-56
2021/03/27 09:12:58;;;;;;;;;;;;;;;20.37;32.70;101898.63;5118219;28;739;-58
2021/03/27 09:15:39;;;;;;;;;;;;;;;20.37;32.59;101896.72;5118093;28;1976;-50
2021/03/27 09:18:23;;;;;;;;;;;;;;;19.46;34.53;101891.28;5119217;28;736;-51
2021/03/27 09:21:07;;;;;;;;;;;;;;;20.19;32.94;101886.97;5119177;28;759;-53
2021/03/27 09:23:36;;;;;;;;;;;;;;;20.58;32.16;101882.91;5118658;28;739;-49
2021/03/27 09:26:02;;;;;;;;;;;;;;;20.40;32.71;101882.34;5117664;28;850;-54
2021/03/27 09:28:30;;;;;;;;;;;;;;;19.96;33.39;101891.88;5119058;28;866;-50
2021/03/27 09:30:58;;;;;;;;;;;;;;;19.18;34.75;101873.19;5118706;28;783;-49
2021/03/27 09:33:24;;;;;;;;;;;;;;;20.28;32.74;101874.28;5118966;28;763;-52
2021/03/27 09:35:53;;;;;;;;;;;;;;;20.64;32.11;101877.13;5118504;28;2031;-50
2021/03/27 09:38:22;;;;;;;;;;;;;;;20.47;32.32;101877.38;5117916;28;930;-53
2021/03/27 09:41:03;;;;;;;;;;;;;;;20.04;33.16;101871.19;5117621;28;799;-51
2021/03/27 09:43:34;;;;;;;;;;;;;;;19.73;33.83;101871.03;5118630;28;752;-54
2021/03/27 09:46:06;;;;;;;;;;;;;;;20.69;32.17;101862.50;5116461;28;856;-53
2021/03/27 09:48:38;;;;;;;;;;;;;;;20.51;32.53;101856.41;5118606;28;815;-57
2021/03/27 09:51:04;;;;;;;;;;;;;;;20.42;32.65;101862.72;5116739;28;1237;-52
2021/03/27 09:53:32;;;;;;;;;;;;;;;19.80;33.63;101860.59;5118209;28;736;-50
2021/03/27 09:56:04;;;;;;;;;;;;;;;19.70;33.89;101862.44;5118701;28;763;-50
2021/03/27 09:58:32;;;;;;;;;;;;;;;20.67;32.10;101853.66;5118163;28;874;-51
2021/03/27 10:01:01;;;;;;;;;;;;;;;20.57;32.24;101850.88;5118012;28;1027;-49
2021/03/27 10:03:39;;;;;;;;;;;;;;;20.35;32.60;101852.75;5118653;28;748;-50
2021/03/27 10:06:07;;;;;;;;;;;;;;;19.73;33.79;101854.47;5118026;28;953;-54
2021/03/27 10:08:33;;;;;;;;;;;;;;;19.49;34.24;101849.38;5117988;28;823;-54
2021/03/27 10:11:03;;;;;;;;;;;;;;;20.49;32.40;101841.19;5116074;28;1216;-56
2021/03/27 10:13:37;;;;;;;;;;;;;;;20.52;32.12;101835.09;5113142;28;1217;-50
2021/03/27 10:16:04;;;;;;;;;;;;;;;20.49;32.56;101835.66;5116584;28;1176;-52
2021/03/27 10:18:29;;;;;;;;;;;;;;;20.00;33.31;101839.69;5115641;28;1177;-56
2021/03/27 10:20:56;;;;;;;;;;;;;;;19.56;34.05;101837.25;5117107;27;1193;-55
2021/03/27 10:23:38;;;;;;;;;;;;;;;20.46;32.56;101837.03;5115818;27;1148;-55
2021/03/27 10:26:16;;;;;;;;;;;;;;;20.46;32.44;101836.22;5115535;28;1263;-57
2021/03/27 10:28:51;;;;;;;;;;;;;;;20.41;32.59;101833.44;5116920;28;1161;-59
2021/03/27 10:31:18;;;;;;;;;;;;;;;19.92;33.05;101834.69;5115212;28;1216;-59
2021/03/27 10:34:03;;;;;;;;;;;;;;;19.59;34.16;101842.25;5114579;28;1988;-59
2021/03/27 10:36:32;;;;;;;;;;;;;;;20.70;32.10;101836.53;5102159;28;1198;-59
2021/03/27 10:39:11;;;;;;;;;;;;;;;20.52;32.35;101835.09;5116221;28;1185;-60
2021/03/27 10:41:46;;;;;;;;;;;;;;;20.43;32.55;101839.53;5115251;28;1149;-57
2021/03/27 10:44:11;;;;;;;;;;;;;;;19.53;33.87;101840.56;5113120;28;1165;-59
2021/03/27 10:46:49;;;;;;;;;;;;;;;19.47;34.39;101832.28;5116220;28;1394;-52
2021/03/27 10:49:17;;;;;;;;;;;;;;;20.56;32.52;101829.88;5113422;28;1166;-65
2021/03/27 10:51:43;;;;;;;;;;;;;;;20.40;32.58;101824.34;5115537;28;1232;-57
2021/03/27 10:54:27;;;;;;;;;;;;;;;20.30;32.81;101827.91;5115952;28;1967;-55
2021/03/27 10:56:55;;;;;;;;;;;;;;;19.74;33.59;101827.69;5116955;28;1066;-57
2021/03/27 10:59:24;;;;;;;;;;;;;;;19.40;34.56;101828.91;5116965;28;739;-58
2021/03/27 11:01:52;;;;;;;;;;;;;;;19.81;33.80;101829.16;5116501;28;1149;-59
2021/03/27 11:04:36;;;;;;;;;;;;;;;20.73;31.96;101824.09;5116975;28;1272;-64
2021/03/27 11:07:11;;;;;;;;;;;;;;;20.27;32.99;101824.84;5126767;27;961;-56
2021/03/27 11:09:55;;;;;;;;;;;;;;;20.28;32.88;101832.03;5137448;27;783;-60
2021/03/27 11:12:40;;;;;;;;;;;;;;;19.25;34.56;101823.28;5131635;27;1235;-59
2021/03/27 11:15:22;;;;;;;;;;;;;;;20.38;32.86;101817.41;5116061;28;1985;-50
2021/03/27 11:18:02;;;;;;;;;;;;;;;20.57;32.23;101817.72;5098555;28;1074;-54
2021/03/27 11:20:39;;;;;;;;;;;;;;;20.44;32.55;101817.16;5098131;28;865;-54
2021/03/27 11:23:24;;;;;;;;;;;;;;;19.82;33.55;101817.00;5115717;28;950;-59
2021/03/27 11:26:08;;;;;;;;;;;;;;;19.40;34.36;101823.38;5114672;28;1240;-63
2021/03/27 11:28:44;;;;;;;;;;;;;;;20.51;32.35;101809.44;5109871;28;1158;-54
2021/03/27 11:31:12;;;;;;;;;;;;;;;21.24;31.34;101801.06;5115732;28;764;-56
2021/03/27 11:33:37;;;;;;;;;;;;;;;21.15;31.13;101803.59;5115514;28;1979;-56
2021/03/27 11:36:10;;;;;;;;;;;;;;;20.60;32.32;101798.66;5114232;28;985;-52
2021/03/27 11:38:45;;;;;;;;;;;;;;;20.28;33.02;101790.63;5115601;28;855;-48
2021/03/27 11:41:11;;;;;;;;;;;;;;;19.79;33.90;101802.88;5114983;28;846;-56
2021/03/27 11:43:38;;;;;;;;;;;;;;;19.78;33.85;101799.31;5116007;28;1102;-50
2021/03/27 11:46:23;;;;;;;;;;;;;;;19.71;34.05;101797.88;5118491;28;735;-56
2021/03/27 11:48:54;;;;;;;;;;;;;;;19.83;33.74;101802.09;5120839;28;767;-56
2021/03/27 11:51:19;;;;;;;;;;;;;;;19.72;33.83;101800.38;5119831;28;1035;-60
2021/03/27 11:53:51;;;;;;;;;;;;;;;20.07;33.28;101790.56;5120756;28;1969;-56
2021/03/27 11:56:25;;;;;;;;;;;;;;;20.07;33.38;101798.03;5120725;28;772;-60
2021/03/27 12:01:41;;;;;;;;;;;;;;;20.17;33.29;101801.66;5120686;28;771;-46
2021/03/27 12:04:09;;;;;;;;;;;;;;;20.18;33.13;101791.44;5119192;28;799;-47
2021/03/27 12:06:54;;;;;;;;;;;;;;;20.37;32.85;101794.50;5119778;28;965;-51
2021/03/27 12:09:20;;;;;;;;;;;;;;;20.42;32.67;101796.44;5120485;28;747;-48
2021/03/27 12:11:52;;;;;;;;;;;;;;;20.37;32.92;101793.66;5119173;28;839;-50
2021/03/27 12:14:36;;;;;;;;;;;;;;;20.44;32.73;101786.75;5118792;28;1909;-50
2021/03/27 12:17:05;;;;;;;;;;;;;;;20.46;32.56;101786.50;5120428;28;903;-54
2021/03/27 12:19:30;;;;;;;;;;;;;;;20.51;32.66;101787.31;5120457;28;843;-57
2021/03/27 12:22:05;;;;;;;;;;;;;;;20.60;32.34;101786.78;5119605;28;945;-49
2021/03/27 12:24:30;;;;;;;;;;;;;;;20.54;32.64;101777.66;5119995;28;847;-54
2021/03/27 12:27:25;;;;;;;;;;;;;;;20.48;32.86;101787.88;5120179;28;858;-57
2021/03/27 12:29:56;;;;;;;;;;;;;;;20.55;32.66;101779.28;5106536;28;1319;-53
2021/03/27 12:32:26;;;;;;;;;;;;;;;20.61;32.64;101780.16;5119976;28;766;-56
2021/03/27 12:35:10;;;;;;;;;;;;;;;20.72;32.29;101776.31;5119162;28;1984;-62
2021/03/27 12:37:35;;;;;;;;;;;;;;;20.64;32.58;101774.06;5119120;28;965;-60
2021/03/27 12:40:11;;;;;;;;;;;;;;;20.74;32.24;101781.56;5119994;28;553;-60
2021/03/27 12:42:39;;;;;;;;;;;;;;;20.82;32.32;101770.75;5119095;28;803;-57
2021/03/27 12:45:09;;;;;;;;;;;;;;;20.68;32.57;101778.78;5117883;28;787;-51
2021/03/27 12:47:41;;;;;;;;;;;;;;;20.76;32.21;101773.78;5119823;28;791;-54
2021/03/27 12:50:29;;;;;;;;;;;;;;;20.76;32.23;101774.63;5119507;28;991;-50
2021/03/27 12:52:55;;;;;;;;;;;;;;;20.81;32.45;101780.16;5111622;28;1300;-50
2021/03/27 12:55:37;;;;;;;;;;;;;;;20.68;32.34;101775.19;5119553;28;1979;-51
2021/03/27 12:58:03;;;;;;;;;;;;;;;20.45;33.00;101782.88;5118690;28;832;-59
2021/03/27 13:00:57;;;;;;;;;;;;;;;20.67;32.38;101773.50;5119466;28;835;-50
2021/03/27 13:03:26;;;;;;;;;;;;;;;20.78;32.29;101777.13;5064308;28;1133;-50
2021/03/27 13:05:57;;;;;;;;;;;;;;;20.82;32.41;101779.03;5118319;28;1093;-50
2021/03/27 13:08:36;;;;;;;;;;;;;;;20.92;32.04;101782.91;5119370;28;689;-49
2021/03/27 13:11:02;;;;;;;;;;;;;;;20.88;31.97;101781.81;5119282;28;827;-56
2021/03/27 13:13:47;;;;;;;;;;;;;;;20.97;32.21;101774.59;5118901;28;822;-49
2021/03/27 13:16:22;;;;;;;;;;;;;;;20.94;32.29;101775.16;5087618;28;1146;-58
2021/03/27 13:19:06;;;;;;;;;;;;;;;20.93;32.10;101773.50;5118997;28;889;-49
2021/03/27 13:21:31;;;;;;;;;;;;;;;20.89;32.23;101769.63;5118371;28;993;-49
2021/03/27 13:24:03;;;;;;;;;;;;;;;20.88;32.24;101770.75;5119152;28;759;-59
2021/03/27 13:26:29;;;;;;;;;;;;;;;20.99;31.96;101772.38;5118858;28;775;-53
2021/03/27 13:29:10;;;;;;;;;;;;;;;21.01;32.02;101761.88;5117515;28;814;-50